Mekoryuk, Alaska
Current Conditions -  °F | °C
As of 5:56 PM on Wednesday 22 Oct 2014 (Local Time) from PAOO Reporting Station
Overcast Overcast  
Wind Chill: -5°   Ceiling: 3200
Heat Index:   Visibility: 10mi
Dew Point: -2°   Wind: 13mph
Humidity: 86%   Direction: 320°NW
Pressure: 29.95"   Gusts: NA
Location:  60.39°N, 166.19°W
Report Text: PAOO 230156Z AUTO 32011KT 10SM OVC032 01/M02 A2995 RMK AO2 TSNO T00051016 SLP143 $
Loading
Personal Weather Stations






























Interactive Weather Map
Tropical Storm Tracking
New forecast layout! Learn more

10-Day Weather Forecast

Advertisements
Track Severe Weather on mobile